Time;durP1;ratioP1;P1;durP2;ratioP2;P2;SDS_P1;SDS_P2;PMS_P1;PMS_P2;Temp;Humidity;BMP_temperature;BMP_pressure;BME280_temperature;BME280_humidity;BME280_pressure;Samples;Min_cycle;Max_cycle;Signal;HPM_P1;HPM_P2
2021/12/29 00:00:32;;;;;;;;;;;;;;;17.50;52.56;100107.31;5010020;28;20249;-40
2021/12/29 00:03:00;;;;;;;;;;;;;;;17.49;52.47;100111.84;5010066;28;19933;-41
2021/12/29 00:05:28;;;;;;;;;;;;;;;17.48;52.15;100120.03;5007366;28;19931;-41
2021/12/29 00:07:54;;;;;;;;;;;;;;;17.49;52.55;100135.13;5006254;28;20337;-41
2021/12/29 00:10:21;;;;;;;;;;;;;;;17.48;52.42;100139.63;5008813;28;20320;-41
2021/12/29 00:12:51;;;;;;;;;;;;;;;17.48;52.41;100154.88;5009003;28;19941;-41
2021/12/29 00:15:18;;;;;;;;;;;;;;;17.46;52.43;100152.38;5007313;28;19935;-43
2021/12/29 00:17:45;;;;;;;;;;;;;;;17.45;52.70;100158.72;5009253;28;19925;-42
2021/12/29 00:20:13;;;;;;;;;;;;;;;17.46;52.75;100162.25;5007096;28;19921;-42
2021/12/29 00:22:40;;;;;;;;;;;;;;;17.45;52.44;100168.63;5010599;28;20024;-42
2021/12/29 00:25:08;;;;;;;;;;;;;;;17.45;52.87;100173.97;5010380;28;19921;-42
2021/12/29 00:27:34;;;;;;;;;;;;;;;17.44;52.58;100173.09;5019248;28;19921;-41
2021/12/29 00:30:02;;;;;;;;;;;;;;;17.44;52.95;100183.00;5013820;28;20060;-41
2021/12/29 00:32:28;;;;;;;;;;;;;;;17.42;53.01;100196.56;5009093;28;19928;-42
2021/12/29 00:34:55;;;;;;;;;;;;;;;17.42;52.79;100195.72;5008957;28;19921;-42
2021/12/29 00:37:21;;;;;;;;;;;;;;;17.42;52.62;100201.91;5008480;28;19967;-42
2021/12/29 00:39:47;;;;;;;;;;;;;;;17.42;52.65;100207.28;5005883;28;19929;-41
2021/12/29 00:42:14;;;;;;;;;;;;;;;17.42;53.15;100206.44;5008070;28;19929;-42
2021/12/29 00:44:40;;;;;;;;;;;;;;;17.40;52.87;100208.44;5009862;28;19929;-42
2021/12/29 00:47:09;;;;;;;;;;;;;;;17.41;53.05;100221.69;5009660;28;19928;-41
2021/12/29 00:49:37;;;;;;;;;;;;;;;17.39;53.28;100226.34;5007024;28;19922;-41
2021/12/29 00:52:07;;;;;;;;;;;;;;;17.40;52.86;100235.22;5008368;28;19936;-42
2021/12/29 00:54:36;;;;;;;;;;;;;;;17.39;52.81;100229.03;5007468;28;19921;-41
2021/12/29 00:57:02;;;;;;;;;;;;;;;17.39;53.08;100233.56;5009022;28;19921;-42
2021/12/29 00:59:29;;;;;;;;;;;;;;;17.38;52.95;100237.25;5008348;28;19931;-42
2021/12/29 01:01:55;;;;;;;;;;;;;;;17.38;53.26;100242.59;5008104;28;19922;-41
2021/12/29 01:04:22;;;;;;;;;;;;;;;17.38;53.04;100253.31;5011795;28;20220;-41
2021/12/29 01:06:49;;;;;;;;;;;;;;;17.37;52.29;100262.38;5008270;28;20452;-41
2021/12/29 01:09:15;;;;;;;;;;;;;;;17.36;52.94;100277.56;5005691;28;19921;-42
2021/12/29 01:11:42;;;;;;;;;;;;;;;17.37;53.28;100275.75;5006094;28;19926;-42
2021/12/29 01:14:09;;;;;;;;;;;;;;;17.37;52.81;100291.84;5008588;28;20701;-42
2021/12/29 01:16:36;;;;;;;;;;;;;;;17.36;52.94;100307.03;5009777;28;19925;-41
2021/12/29 01:19:06;;;;;;;;;;;;;;;17.36;53.08;100311.56;5009249;28;19930;-41
2021/12/29 01:21:33;;;;;;;;;;;;;;;17.36;53.29;100314.25;5006465;28;19928;-42
2021/12/29 01:24:00;;;;;;;;;;;;;;;17.35;52.71;100318.75;5008045;28;20350;-41
2021/12/29 01:26:27;;;;;;;;;;;;;;;17.34;53.19;100327.81;5008340;28;19925;-41
2021/12/29 01:28:53;;;;;;;;;;;;;;;17.35;53.24;100323.28;5005383;28;20320;-42
2021/12/29 01:31:20;;;;;;;;;;;;;;;17.34;53.06;100321.63;5009149;28;19939;-42
2021/12/29 01:33:46;;;;;;;;;;;;;;;17.34;53.44;100327.81;5006752;28;20011;-42
2021/12/29 01:36:13;;;;;;;;;;;;;;;17.33;53.33;100333.34;5005680;28;19927;-41
2021/12/29 01:38:39;;;;;;;;;;;;;;;17.33;53.36;100334.16;5007599;28;19921;-41
2021/12/29 01:41:05;;;;;;;;;;;;;;;17.32;52.78;100334.31;5008363;28;19937;-41
2021/12/29 01:43:32;;;;;;;;;;;;;;;17.31;53.32;100341.50;5005796;28;20016;-43
2021/12/29 01:45:58;;;;;;;;;;;;;;;17.31;53.28;100349.56;5006794;28;20032;-43
2021/12/29 01:48:25;;;;;;;;;;;;;;;17.29;53.32;100346.22;5009075;28;20328;-41
2021/12/29 01:50:52;;;;;;;;;;;;;;;17.31;52.88;100348.72;5006495;28;19929;-42
2021/12/29 01:53:24;;;;;;;;;;;;;;;17.31;53.26;100357.59;5005982;28;19921;-41
2021/12/29 01:55:51;;;;;;;;;;;;;;;17.31;52.82;100362.94;5006416;28;20265;-41
2021/12/29 01:58:18;;;;;;;;;;;;;;;17.30;52.88;100357.75;5009805;28;20051;-41
2021/12/29 02:00:44;;;;;;;;;;;;;;;17.28;53.10;100364.09;5006237;28;19921;-42
2021/12/29 02:03:11;;;;;;;;;;;;;;;17.29;52.89;100367.63;5003962;28;19930;-41
2021/12/29 02:05:38;;;;;;;;;;;;;;;17.28;52.84;100372.13;5007760;28;19921;-42
2021/12/29 02:08:05;;;;;;;;;;;;;;;17.27;52.74;100373.13;5012177;28;20269;-42
2021/12/29 02:10:40;;;;;;;;;;;;;;;17.27;53.05;100383.00;5006131;28;20321;-41
2021/12/29 02:13:07;;;;;;;;;;;;;;;17.26;53.31;100368.78;5007232;28;19929;-42
2021/12/29 02:15:33;;;;;;;;;;;;;;;17.26;52.79;100374.16;5003818;28;20317;-42
2021/12/29 02:18:00;;;;;;;;;;;;;;;17.25;53.46;100369.78;5007788;28;19928;-41
2021/12/29 02:20:27;;;;;;;;;;;;;;;17.25;53.34;100383.19;5006817;28;20227;-44
2021/12/29 02:23:12;;;;;;;;;;;;;;;17.25;53.11;100383.19;5008132;28;20020;-41
2021/12/29 02:25:49;;;;;;;;;;;;;;;17.25;53.23;100383.19;5007875;28;19921;-41
2021/12/29 02:28:16;;;;;;;;;;;;;;;17.24;52.88;100394.88;5009989;28;20004;-41
2021/12/29 02:30:45;;;;;;;;;;;;;;;17.24;53.39;100397.56;5002639;28;20342;-41
2021/12/29 02:33:13;;;;;;;;;;;;;;;17.24;53.42;100386.00;5007558;28;19925;-41
2021/12/29 02:35:43;;;;;;;;;;;;;;;17.23;53.14;100393.19;5005749;28;19961;-41
2021/12/29 02:38:19;;;;;;;;;;;;;;;17.23;53.25;100382.50;5005670;28;19936;-41
2021/12/29 02:40:48;;;;;;;;;;;;;;;17.21;53.66;100379.16;5006337;28;19922;-41
2021/12/29 02:43:19;;;;;;;;;;;;;;;17.23;53.44;100397.72;5007159;28;20347;-41
2021/12/29 02:45:49;;;;;;;;;;;;;;;17.22;52.51;100396.88;5005241;28;19929;-42
2021/12/29 02:48:17;;;;;;;;;;;;;;;17.22;53.28;100396.88;5005987;28;19928;-42
2021/12/29 02:50:44;;;;;;;;;;;;;;;17.22;52.75;100394.22;5008188;28;20004;-42
2021/12/29 02:53:12;;;;;;;;;;;;;;;17.22;53.25;100404.09;5005603;28;19922;-41
2021/12/29 02:55:38;;;;;;;;;;;;;;;17.22;53.59;100418.31;5007715;28;19949;-42
2021/12/29 02:58:05;;;;;;;;;;;;;;;17.22;52.98;100425.50;5006620;28;19921;-42
2021/12/29 03:00:31;;;;;;;;;;;;;;;17.22;53.59;100430.88;5005962;28;20356;-42
2021/12/29 03:02:58;;;;;;;;;;;;;;;17.21;53.19;100435.38;5004916;28;20879;-42
2021/12/29 03:05:26;;;;;;;;;;;;;;;17.21;53.07;100437.22;5005420;28;19953;-41
2021/12/29 03:07:55;;;;;;;;;;;;;;;17.22;53.40;100449.63;5003699;28;19925;-40
2021/12/29 03:10:22;;;;;;;;;;;;;;;17.20;53.21;100448.91;5006770;28;19934;-41
2021/12/29 03:12:48;;;;;;;;;;;;;;;17.20;52.97;100443.56;5008062;28;19935;-40
2021/12/29 03:15:15;;;;;;;;;;;;;;;17.21;53.09;100455.97;5007904;28;19921;-41
2021/12/29 03:17:41;;;;;;;;;;;;;;;17.20;53.38;100456.94;5009607;28;19929;-41
2021/12/29 03:20:09;;;;;;;;;;;;;;;17.20;53.04;100463.16;5007933;28;19933;-41
2021/12/29 03:22:35;;;;;;;;;;;;;;;17.19;53.48;100464.16;5010569;28;19921;-41
2021/12/29 03:25:02;;;;;;;;;;;;;;;17.20;53.51;100475.69;5009823;28;21340;-40
2021/12/29 03:27:28;;;;;;;;;;;;;;;17.19;53.03;100487.41;5008593;28;19921;-41
2021/12/29 03:29:54;;;;;;;;;;;;;;;17.19;53.32;100490.09;5006472;28;20012;-41
2021/12/29 03:32:36;;;;;;;;;;;;;;;17.18;53.35;100488.44;5012608;28;20196;-41
2021/12/29 03:35:02;;;;;;;;;;;;;;;17.18;53.11;100496.47;5009741;28;19929;-41
2021/12/29 03:37:29;;;;;;;;;;;;;;;17.18;52.95;100502.66;5009649;28;19929;-41
2021/12/29 03:39:55;;;;;;;;;;;;;;;17.18;53.21;100510.69;5009746;28;20028;-41
2021/12/29 03:42:21;;;;;;;;;;;;;;;17.18;52.77;100518.72;5012848;28;19955;-41
2021/12/29 03:44:48;;;;;;;;;;;;;;;17.18;53.08;100526.75;5012839;28;19928;-41
2021/12/29 03:47:14;;;;;;;;;;;;;;;17.17;53.37;100514.38;5010032;28;20003;-41
2021/12/29 03:49:41;;;;;;;;;;;;;;;17.18;53.05;100509.84;5011192;28;19927;-41
2021/12/29 03:52:07;;;;;;;;;;;;;;;17.17;53.32;100514.38;5008327;28;19929;-41
2021/12/29 03:54:33;;;;;;;;;;;;;;;17.15;53.62;100521.69;5008681;28;20432;-41
2021/12/29 03:57:02;;;;;;;;;;;;;;;17.17;53.45;100524.25;5008596;28;20218;-41
2021/12/29 03:59:29;;;;;;;;;;;;;;;17.17;53.50;100518.88;5010385;28;20031;-41
2021/12/29 04:01:55;;;;;;;;;;;;;;;17.17;52.91;100522.41;5008835;28;20032;-41
2021/12/29 04:04:22;;;;;;;;;;;;;;;17.16;53.16;100526.06;5007149;28;19960;-41
2021/12/29 04:06:49;;;;;;;;;;;;;;;17.16;52.77;100533.25;5009406;28;19929;-41
2021/12/29 04:09:16;;;;;;;;;;;;;;;17.14;53.28;100533.41;5011028;28;19925;-40
2021/12/29 04:11:43;;;;;;;;;;;;;;;17.15;53.31;100521.69;5009296;28;19984;-41
2021/12/29 04:14:09;;;;;;;;;;;;;;;17.15;53.03;100516.34;5009439;28;19921;-41
2021/12/29 04:16:37;;;;;;;;;;;;;;;17.14;53.30;100519.19;5008225;28;19931;-41
2021/12/29 04:19:14;;;;;;;;;;;;;;;17.15;52.88;100528.91;5008072;28;20024;-41
2021/12/29 04:21:41;;;;;;;;;;;;;;;17.15;53.14;100528.91;5006605;28;20052;-41
2021/12/29 04:24:08;;;;;;;;;;;;;;;17.15;53.19;100529.75;5005390;28;19932;-42
2021/12/29 04:26:37;;;;;;;;;;;;;;;17.14;52.98;100527.22;5008766;28;20031;-41
2021/12/29 04:29:04;;;;;;;;;;;;;;;17.13;53.25;100534.41;5007982;28;19926;-41
2021/12/29 04:31:31;;;;;;;;;;;;;;;17.12;53.14;100543.44;5008308;28;19936;-41
2021/12/29 04:33:57;;;;;;;;;;;;;;;17.12;53.21;100545.28;5006265;28;19921;-41
2021/12/29 04:36:24;;;;;;;;;;;;;;;17.13;53.28;100561.19;5009735;28;20336;-41
2021/12/29 04:38:51;;;;;;;;;;;;;;;17.12;52.78;100564.84;5006325;28;20004;-41
2021/12/29 04:41:17;;;;;;;;;;;;;;;17.12;53.30;100567.53;5007785;28;20384;-41
2021/12/29 04:43:44;;;;;;;;;;;;;;;17.11;53.52;100568.53;5006334;28;19921;-41
2021/12/29 04:46:14;;;;;;;;;;;;;;;17.13;53.32;100576.44;5009420;28;20020;-42
2021/12/29 04:48:47;;;;;;;;;;;;;;;17.12;53.14;100574.72;5007687;28;19929;-42
2021/12/29 04:51:15;;;;;;;;;;;;;;;17.11;53.01;100581.09;5007696;28;19928;-42
2021/12/29 04:53:42;;;;;;;;;;;;;;;17.11;53.28;100584.59;5008781;28;19925;-41
2021/12/29 04:56:08;;;;;;;;;;;;;;;17.10;53.21;100585.59;5009134;28;20036;-40
2021/12/29 04:58:35;;;;;;;;;;;;;;;17.11;53.12;100589.97;5009536;28;19931;-41
2021/12/29 05:01:01;;;;;;;;;;;;;;;17.10;53.69;100596.31;5004939;28;19929;-41
2021/12/29 05:03:28;;;;;;;;;;;;;;;17.11;53.00;100605.19;5012218;28;19975;-41
2021/12/29 05:08:24;;;;;;;;;;;;;;;17.08;53.73;100600.13;5009282;28;19928;-41
2021/12/29 05:08:44;;;;;;;;;;;;;;;17.09;53.23;100591.13;5010739;28;19921;-41
2021/12/29 05:11:11;;;;;;;;;;;;;;;17.07;53.55;100593.94;5006444;28;19929;-41
2021/12/29 05:13:40;;;;;;;;;;;;;;;17.08;53.53;100590.25;5013367;28;19921;-41
2021/12/29 05:16:07;;;;;;;;;;;;;;;17.07;53.65;100585.91;5009137;28;19929;-43
2021/12/29 05:18:34;;;;;;;;;;;;;;;17.07;53.56;100591.25;5009657;28;19928;-41
2021/12/29 05:21:02;;;;;;;;;;;;;;;17.07;53.56;100603.81;5007929;28;19925;-41
2021/12/29 05:23:29;;;;;;;;;;;;;;;17.07;53.64;100606.50;5009051;28;20461;-41
2021/12/29 05:25:55;;;;;;;;;;;;;;;17.06;53.01;100605.66;5006299;28;19925;-41
2021/12/29 05:28:23;;;;;;;;;;;;;;;17.06;53.14;100610.16;5008994;28;19929;-41
2021/12/29 05:30:50;;;;;;;;;;;;;;;17.06;53.78;100612.84;5008042;28;19999;-41
2021/12/29 05:33:17;;;;;;;;;;;;;;;17.04;53.40;100610.28;5001026;28;19932;-41
2021/12/29 05:35:43;;;;;;;;;;;;;;;17.04;53.62;100607.63;5006444;28;19926;-41
2021/12/29 05:38:10;;;;;;;;;;;;;;;17.04;53.91;100612.97;5007525;28;19927;-41
2021/12/29 05:40:37;;;;;;;;;;;;;;;17.05;53.42;100613.84;5002729;28;19933;-41
2021/12/29 05:43:03;;;;;;;;;;;;;;;17.06;53.29;100612.84;5006634;28;21431;-40
2021/12/29 05:45:30;;;;;;;;;;;;;;;17.05;53.57;100612.00;5007409;28;19935;-40
2021/12/29 05:47:57;;;;;;;;;;;;;;;17.05;53.07;100617.38;5006210;28;20194;-40
2021/12/29 05:50:25;;;;;;;;;;;;;;;17.04;53.33;100615.66;5003694;28;19921;-40
2021/12/29 05:52:52;;;;;;;;;;;;;;;17.03;53.22;100614.81;5004706;28;19925;-40
2021/12/29 05:55:18;;;;;;;;;;;;;;;17.03;53.10;100617.50;5004944;28;19932;-41
2021/12/29 05:57:45;;;;;;;;;;;;;;;17.05;53.49;100619.19;4999902;28;19921;-41
2021/12/29 06:00:14;;;;;;;;;;;;;;;17.03;53.53;100624.69;5002441;28;19936;-41
2021/12/29 06:02:40;;;;;;;;;;;;;;;17.02;53.33;100628.38;5004922;28;19921;-42
2021/12/29 06:05:07;;;;;;;;;;;;;;;17.01;53.02;100632.03;5003391;28;19928;-41
2021/12/29 06:07:34;;;;;;;;;;;;;;;17.01;53.04;100637.41;5001155;28;19939;-41
2021/12/29 06:10:00;;;;;;;;;;;;;;;17.01;53.39;100642.75;5003302;28;19929;-41
2021/12/29 06:12:27;;;;;;;;;;;;;;;17.01;53.21;100634.72;5002357;28;19928;-41
2021/12/29 06:14:54;;;;;;;;;;;;;;;17.01;53.42;100642.75;5002198;28;20335;-41
2021/12/29 06:17:21;;;;;;;;;;;;;;;17.00;53.54;100635.69;5005150;28;20003;-41
2021/12/29 06:19:48;;;;;;;;;;;;;;;17.00;53.52;100641.91;5004526;28;19928;-41
2021/12/29 06:22:14;;;;;;;;;;;;;;;17.01;53.35;100642.75;4999544;28;20475;-41
2021/12/29 06:24:41;;;;;;;;;;;;;;;16.99;53.53;100634.03;5003542;28;19955;-41
2021/12/29 06:27:08;;;;;;;;;;;;;;;17.00;53.30;100641.06;5006793;28;19931;-41
2021/12/29 06:29:35;;;;;;;;;;;;;;;16.99;53.06;100642.06;5006266;28;19929;-41
2021/12/29 06:32:02;;;;;;;;;;;;;;;16.99;53.30;100645.56;5001721;28;19936;-41
2021/12/29 06:34:29;;;;;;;;;;;;;;;16.99;52.78;100655.44;5005267;28;19922;-41
2021/12/29 06:36:57;;;;;;;;;;;;;;;16.99;53.34;100663.47;5004782;28;19921;-41
2021/12/29 06:39:24;;;;;;;;;;;;;;;16.98;53.42;100665.31;5001310;28;19943;-41
2021/12/29 06:41:50;;;;;;;;;;;;;;;16.98;53.29;100664.47;5006701;28;19968;-41
2021/12/29 06:44:17;;;;;;;;;;;;;;;16.97;52.92;100663.63;5005026;28;20004;-41
2021/12/29 06:46:43;;;;;;;;;;;;;;;16.97;52.86;100669.00;5006876;28;19929;-41
2021/12/29 06:49:10;;;;;;;;;;;;;;;16.98;53.02;100684.06;5004102;28;19948;-42
2021/12/29 06:51:36;;;;;;;;;;;;;;;16.97;52.86;100693.09;5006450;28;20517;-41
2021/12/29 06:54:02;;;;;;;;;;;;;;;16.98;53.42;100697.44;5003805;28;19932;-41
2021/12/29 06:56:29;;;;;;;;;;;;;;;16.98;53.53;100697.44;5003599;28;19948;-41
2021/12/29 06:58:55;;;;;;;;;;;;;;;16.97;53.19;100697.59;5000319;28;19930;-41
2021/12/29 07:01:21;;;;;;;;;;;;;;;16.96;53.24;100691.38;5003709;28;19929;-41
2021/12/29 07:03:48;;;;;;;;;;;;;;;16.97;53.10;100694.94;5000283;28;20026;-41
2021/12/29 07:06:15;;;;;;;;;;;;;;;16.97;52.78;100690.41;5004325;28;19921;-41
2021/12/29 07:08:41;;;;;;;;;;;;;;;16.95;52.56;100695.06;5002002;28;19969;-41
2021/12/29 07:11:07;;;;;;;;;;;;;;;16.97;52.45;100711.00;5003203;28;19921;-41
2021/12/29 07:13:34;;;;;;;;;;;;;;;16.95;52.63;100705.75;5001419;28;20602;-41
2021/12/29 07:16:00;;;;;;;;;;;;;;;16.96;52.92;100712.78;5000337;28;19931;-41
2021/12/29 07:18:27;;;;;;;;;;;;;;;16.95;53.32;100707.59;5000114;28;19925;-41
2021/12/29 07:20:53;;;;;;;;;;;;;;;16.94;53.14;100712.13;5006128;28;20220;-41
2021/12/29 07:23:19;;;;;;;;;;;;;;;16.95;53.20;100716.47;5003101;28;19922;-41
2021/12/29 07:25:46;;;;;;;;;;;;;;;16.94;53.06;100722.81;5001913;28;19929;-41
2021/12/29 07:28:12;;;;;;;;;;;;;;;16.94;52.63;100724.66;5001571;28;20370;-41
2021/12/29 07:30:39;;;;;;;;;;;;;;;16.93;52.30;100731.03;5002258;28;19926;-41
2021/12/29 07:33:05;;;;;;;;;;;;;;;16.94;52.55;100738.88;5003711;28;19921;-41
2021/12/29 07:35:32;;;;;;;;;;;;;;;16.93;52.44;100737.22;5004608;28;19925;-41
2021/12/29 07:37:58;;;;;;;;;;;;;;;16.92;53.31;100738.19;5003677;28;19957;-41
2021/12/29 07:40:24;;;;;;;;;;;;;;;16.92;52.87;100748.06;5007120;28;19960;-42
2021/12/29 07:42:51;;;;;;;;;;;;;;;16.91;53.12;100743.69;5002302;28;20370;-42
2021/12/29 07:45:18;;;;;;;;;;;;;;;16.91;53.25;100741.03;5004310;28;19922;-42
2021/12/29 07:47:47;;;;;;;;;;;;;;;16.91;52.63;100738.34;5005821;28;20293;-42
2021/12/29 07:50:15;;;;;;;;;;;;;;;16.90;53.12;100737.50;5000880;28;19936;-42
2021/12/29 07:52:56;;;;;;;;;;;;;;;16.91;53.08;100735.66;5003326;28;19928;-42
2021/12/29 07:55:22;;;;;;;;;;;;;;;16.89;52.73;100745.69;5006679;28;19925;-41
2021/12/29 07:57:49;;;;;;;;;;;;;;;16.91;53.12;100741.03;5007830;28;20257;-41
2021/12/29 08:00:16;;;;;;;;;;;;;;;16.90;52.71;100736.66;5005513;28;20260;-42
2021/12/29 08:02:44;;;;;;;;;;;;;;;16.89;52.82;100727.78;5008547;28;19926;-41
2021/12/29 08:05:11;;;;;;;;;;;;;;;16.89;52.62;100730.47;5007646;28;20364;-42
2021/12/29 08:07:43;;;;;;;;;;;;;;;16.90;52.60;100728.63;5009676;28;20020;-42
2021/12/29 08:10:10;;;;;;;;;;;;;;;16.90;52.88;100728.63;5004119;28;20277;-41
2021/12/29 08:12:36;;;;;;;;;;;;;;;16.89;52.69;100737.66;5008929;28;20068;-42
2021/12/29 08:15:03;;;;;;;;;;;;;;;16.88;52.79;100734.13;5005779;28;19929;-41
2021/12/29 08:17:32;;;;;;;;;;;;;;;16.89;53.31;100737.66;5007705;28;19921;-42
2021/12/29 08:20:02;;;;;;;;;;;;;;;16.87;52.52;100735.13;5037538;28;19937;-41
2021/12/29 08:22:29;;;;;;;;;;;;;;;16.88;52.65;100735.97;5008664;28;19921;-41
2021/12/29 08:24:55;;;;;;;;;;;;;;;16.88;52.61;100744.00;5006272;28;19980;-41
2021/12/29 08:27:22;;;;;;;;;;;;;;;16.88;52.37;100752.03;5009440;28;19930;-41
2021/12/29 08:29:48;;;;;;;;;;;;;;;16.88;53.06;100758.22;5007457;28;20020;-41
2021/12/29 08:32:15;;;;;;;;;;;;;;;16.89;52.48;100745.69;5006925;28;19929;-41
2021/12/29 08:34:41;;;;;;;;;;;;;;;16.90;52.49;100758.09;5007326;28;19935;-41
2021/12/29 08:37:08;;;;;;;;;;;;;;;16.89;52.96;100759.09;5006604;28;19921;-41
2021/12/29 08:39:34;;;;;;;;;;;;;;;16.90;52.65;100764.28;5006724;28;19921;-42
2021/12/29 08:42:01;;;;;;;;;;;;;;;16.90;52.73;100758.09;5010290;28;20437;-41
2021/12/29 08:44:27;;;;;;;;;;;;;;;16.90;52.17;100758.09;5007710;28;19921;-41
2021/12/29 08:46:53;;;;;;;;;;;;;;;16.90;52.59;100753.56;5008708;28;19933;-41
2021/12/29 08:49:20;;;;;;;;;;;;;;;16.90;52.46;100755.41;5008854;28;20015;-41
2021/12/29 08:51:47;;;;;;;;;;;;;;;16.90;52.20;100753.56;5007911;28;20308;-41
2021/12/29 08:54:13;;;;;;;;;;;;;;;16.89;51.88;100754.56;5004683;28;19927;-41
2021/12/29 08:56:40;;;;;;;;;;;;;;;16.89;52.37;100745.69;5009757;28;19921;-41
2021/12/29 08:59:06;;;;;;;;;;;;;;;16.90;52.60;100742.03;5008677;28;19932;-41
2021/12/29 09:01:32;;;;;;;;;;;;;;;16.90;52.39;100752.72;5006344;28;20421;-41
2021/12/29 09:03:59;;;;;;;;;;;;;;;16.88;51.86;100752.03;5008192;28;20582;-41
2021/12/29 09:06:26;;;;;;;;;;;;;;;16.88;52.21;100755.53;5007579;28;19943;-41
2021/12/29 09:08:54;;;;;;;;;;;;;;;16.88;52.69;100750.19;5007373;28;19922;-41
2021/12/29 09:11:21;;;;;;;;;;;;;;;16.88;52.17;100750.19;5006683;28;20233;-41
2021/12/29 09:13:47;;;;;;;;;;;;;;;16.87;52.38;100751.19;5006865;28;19929;-41
2021/12/29 09:16:13;;;;;;;;;;;;;;;16.87;52.06;100742.31;5007382;28;19925;-41
2021/12/29 09:18:40;;;;;;;;;;;;;;;16.86;52.08;100722.72;5008428;28;20020;-41
2021/12/29 09:21:12;;;;;;;;;;;;;;;16.87;51.94;100736.97;5010093;28;19925;-41
2021/12/29 09:23:39;;;;;;;;;;;;;;;16.86;51.85;100735.28;5003629;28;19936;-40
2021/12/29 09:26:06;;;;;;;;;;;;;;;16.85;52.29;100736.28;5002263;28;19952;-41
2021/12/29 09:28:32;;;;;;;;;;;;;;;16.84;52.34;100738.09;5010926;28;19922;-41
2021/12/29 09:30:59;;;;;;;;;;;;;;;16.85;51.59;100731.75;5005479;28;19949;-41
2021/12/29 09:33:25;;;;;;;;;;;;;;;16.85;51.83;100736.28;5003705;28;20008;-41
2021/12/29 09:35:57;;;;;;;;;;;;;;;16.85;52.46;100745.16;5007359;28;20373;-41
2021/12/29 09:38:24;;;;;;;;;;;;;;;16.85;52.02;100729.09;5007989;28;19930;-41
2021/12/29 09:40:50;;;;;;;;;;;;;;;16.85;52.12;100722.91;5003976;28;20296;-41
2021/12/29 09:43:17;;;;;;;;;;;;;;;16.85;51.40;100721.06;5010015;28;19951;-41
2021/12/29 09:45:45;;;;;;;;;;;;;;;16.85;51.83;100730.94;5007154;28;19931;-41
2021/12/29 09:48:11;;;;;;;;;;;;;;;16.87;51.77;100742.31;5004794;28;20563;-42
2021/12/29 09:50:39;;;;;;;;;;;;;;;16.86;51.90;100759.38;5005451;28;19929;-41
2021/12/29 09:53:06;;;;;;;;;;;;;;;16.86;51.70;100752.19;5005776;28;20024;-41
2021/12/29 09:55:33;;;;;;;;;;;;;;;16.86;51.93;100738.78;5007082;28;20640;-41
2021/12/29 09:58:00;;;;;;;;;;;;;;;16.86;51.83;100741.47;5007575;28;19990;-41
2021/12/29 10:00:36;;;;;;;;;;;;;;;16.87;51.48;100736.97;5005714;28;20360;-41
2021/12/29 10:03:04;;;;;;;;;;;;;;;16.87;51.71;100726.25;5007871;28;19928;-41
2021/12/29 10:05:31;;;;;;;;;;;;;;;16.87;51.29;100724.41;5007132;28;19925;-41
2021/12/29 10:07:59;;;;;;;;;;;;;;;16.87;51.77;100720.91;5004409;28;20011;-42
2021/12/29 10:10:26;;;;;;;;;;;;;;;16.88;51.28;100719.91;5003485;28;20013;-41
2021/12/29 10:12:52;;;;;;;;;;;;;;;16.87;51.46;100716.38;5007646;28;20449;-41
2021/12/29 10:15:19;;;;;;;;;;;;;;;16.87;51.63;100705.66;5006329;28;19921;-42
2021/12/29 10:17:45;;;;;;;;;;;;;;;16.88;51.10;100696.63;5006648;28;19921;-42
2021/12/29 10:20:14;;;;;;;;;;;;;;;16.87;51.51;100684.25;5005244;28;19921;-41
2021/12/29 10:22:41;;;;;;;;;;;;;;;16.88;52.15;100693.13;5006617;28;19927;-41
2021/12/29 10:25:09;;;;;;;;;;;;;;;16.88;51.19;100696.63;5003142;28;19922;-41
2021/12/29 10:27:37;;;;;;;;;;;;;;;16.88;51.72;100698.47;5006642;28;20012;-41
2021/12/29 10:30:15;;;;;;;;;;;;;;;16.88;52.12;100691.28;5002991;28;19925;-41
2021/12/29 10:32:42;;;;;;;;;;;;;;;16.92;51.49;100687.31;5006282;28;19936;-41
2021/12/29 10:35:08;;;;;;;;;;;;;;;16.97;52.02;100687.72;5002911;28;20379;-41
2021/12/29 10:37:35;;;;;;;;;;;;;;;17.04;52.04;100698.66;5004289;28;20243;-41
2021/12/29 10:40:01;;;;;;;;;;;;;;;17.13;51.70;100694.25;5007454;28;19929;-41
2021/12/29 10:42:27;;;;;;;;;;;;;;;17.20;51.35;100690.78;5009774;28;19921;-42
2021/12/29 10:44:57;;;;;;;;;;;;;;;17.31;51.54;100687.06;5003481;28;19930;-40
2021/12/29 10:47:31;;;;;;;;;;;;;;;17.41;51.41;100677.13;5005335;28;19929;-42
2021/12/29 10:50:03;;;;;;;;;;;;;;;17.51;51.35;100685.06;5006248;28;20004;-40
2021/12/29 10:52:34;;;;;;;;;;;;;;;17.61;50.88;100687.66;5006445;28;19931;-40
2021/12/29 10:55:02;;;;;;;;;;;;;;;17.69;50.49;100693.13;5006705;28;20272;-40
2021/12/29 10:57:28;;;;;;;;;;;;;;;17.79;50.75;100693.03;5003585;28;20313;-40
2021/12/29 10:59:57;;;;;;;;;;;;;;;17.85;50.89;100695.09;5001520;28;20004;-40
2021/12/29 11:02:28;;;;;;;;;;;;;;;17.93;50.33;100719.28;5000752;28;19930;-41
2021/12/29 11:04:56;;;;;;;;;;;;;;;17.99;50.38;100716.81;4999077;28;19932;-40
2021/12/29 11:07:23;;;;;;;;;;;;;;;18.06;50.53;100724.25;5000783;28;19929;-40
2021/12/29 11:09:50;;;;;;;;;;;;;;;18.12;50.19;100720.94;5006105;28;20009;-40
2021/12/29 11:12:16;;;;;;;;;;;;;;;18.18;50.21;100718.47;5001482;28;19928;-41
2021/12/29 11:14:43;;;;;;;;;;;;;;;18.23;50.18;100705.41;5004981;28;20383;-40
2021/12/29 11:17:19;;;;;;;;;;;;;;;18.28;50.11;100696.06;5000739;28;19921;-40
2021/12/29 11:20:03;;;;;;;;;;;;;;;18.34;50.15;100679.34;5004486;28;19921;-40
2021/12/29 11:22:30;;;;;;;;;;;;;;;18.38;49.52;100688.75;5002139;28;20029;-40
2021/12/29 11:24:57;;;;;;;;;;;;;;;18.43;49.60;100667.63;5002452;28;19925;-41
2021/12/29 11:27:25;;;;;;;;;;;;;;;18.46;49.59;100661.94;5004979;28;19952;-41
2021/12/29 11:29:58;;;;;;;;;;;;;;;18.49;49.41;100654.41;5004351;28;20024;-40
2021/12/29 11:32:29;;;;;;;;;;;;;;;18.54;49.55;100658.47;5004843;28;19925;-40
2021/12/29 11:35:01;;;;;;;;;;;;;;;18.56;49.28;100659.97;4998929;28;19960;-41
2021/12/29 11:37:27;;;;;;;;;;;;;;;18.60;49.43;100665.84;5002687;28;20321;-41
2021/12/29 11:39:54;;;;;;;;;;;;;;;18.62;49.21;100683.50;5004294;28;20547;-41
2021/12/29 11:42:21;;;;;;;;;;;;;;;18.67;49.44;100681.16;5006693;28;20016;-41
2021/12/29 11:44:47;;;;;;;;;;;;;;;18.70;49.11;100677.34;5009879;28;19929;-41
2021/12/29 11:47:14;;;;;;;;;;;;;;;18.72;49.02;100661.91;5003107;28;19929;-41
2021/12/29 11:49:40;;;;;;;;;;;;;;;18.74;49.14;100644.63;5004023;28;19921;-41
2021/12/29 11:52:07;;;;;;;;;;;;;;;18.79;48.73;100640.63;5004692;28;19929;-41
2021/12/29 11:54:49;;;;;;;;;;;;;;;18.81;49.14;100638.59;5000280;28;19925;-41
2021/12/29 11:57:20;;;;;;;;;;;;;;;18.82;49.15;100643.81;5005469;28;19937;-41
2021/12/29 11:59:46;;;;;;;;;;;;;;;18.85;48.76;100639.94;5005358;28;19928;-41
2021/12/29 12:02:23;;;;;;;;;;;;;;;18.88;48.73;100642.31;5008102;28;19997;-41
2021/12/29 12:05:13;;;;;;;;;;;;;;;18.90;49.00;100634.94;5001220;28;19925;-41
2021/12/29 12:07:40;;;;;;;;;;;;;;;18.91;48.40;100636.63;5005036;28;19925;-41
2021/12/29 12:10:11;;;;;;;;;;;;;;;18.94;48.36;100622.88;5004265;28;20008;-41
2021/12/29 12:12:41;;;;;;;;;;;;;;;18.95;48.61;100619.19;5002882;28;20294;-41
2021/12/29 12:15:08;;;;;;;;;;;;;;;18.96;48.25;100626.22;5005938;28;20533;-41
2021/12/29 12:17:35;;;;;;;;;;;;;;;18.98;48.78;100622.38;5004481;28;20020;-41
2021/12/29 12:20:05;;;;;;;;;;;;;;;19.01;48.43;100609.59;5007637;28;19936;-42
2021/12/29 12:23:00;;;;;;;;;;;;;;;19.02;48.62;100606.78;5007885;28;19956;-42
2021/12/29 12:25:28;;;;;;;;;;;;;;;19.05;48.74;100602.91;5004234;28;19996;-41
2021/12/29 12:28:02;;;;;;;;;;;;;;;19.06;48.55;100599.22;5002684;28;19979;-41
2021/12/29 12:30:45;;;;;;;;;;;;;;;19.07;48.54;100592.84;5007036;28;20316;-42
2021/12/29 12:33:14;;;;;;;;;;;;;;;19.08;48.29;100587.28;5004336;28;20028;-41
2021/12/29 12:35:42;;;;;;;;;;;;;;;19.10;48.23;100579.91;5007378;28;19979;-42
2021/12/29 12:38:12;;;;;;;;;;;;;;;19.12;47.85;100577.06;5010734;28;20059;-42